Terminal Aerodrome Forecast
Issued by NWS Sterling, VA

Home | Current Version | Previous Version | Text Only | Print | Product List | Glossary On
Versions: 1 2 3 4 5 6 7 8 9 10 11 12 13 14 15 16 17 18 19 20 21 22
280
FTUS41 KLWX 261734
TAFBWI
TAF
KBWI 261734Z 2618/2724 28010G19KT P6SM SCT050
     FM262200 29008KT P6SM FEW250
     FM270000 28004KT P6SM SKC
     FM271200 00000KT P6SM BKN090
     FM271800 19006KT P6SM OVC070=

USA.gov is the U.S. government's official web portal to all federal, state and local government web resources and services.